Main page
METAR-TAF:

METAR-TAF

Airports :

Chengdu Shuangliu International Airport

Chengdu, China

latitude: 30-40N, longitude: 104-01E, elevation: 508 m

Current weather observation

The report was made 21 minutes ago, at 23:00 UTC
Calm wind
Temperature 6°C
Humidity 87%
Pressure 1026 hPa
Visibility: 5000 m
mist

METAR: ZUUU 212300Z 00000MPS 5000 BR NSC 06/04 Q1026 NOSIG

Time: 07:21 (23:21 UTC)

Forecast

The report was made 9 hours and 9 minutes ago, at 14:12 UTC
Forecast valid from 21 at 18 UTC to 22 at 18 UTC
Wind 6 kt from the South/Southwest
Visibility: 5000 m
mist
Becoming
from 21 at 22 UTC to 21 at 23 UTC
Visibility: 2300 m
Becoming
from 22 at 01 UTC to 22 at 02 UTC
Visibility: 5000 m

TAF: ZUUU 211412Z 2118/2218 20003MPS 5000 BR NSC TX13/2207Z TN00/2123Z BECMG 2122/2123 2300 BECMG 2201/2202 5000

Weather observations and forecasts of more than 4000 airports (METAR and TAF reports).

The available stations are represented by yellow and red dots on the map.

Hover mouse over dot to see the name of the station.

Then click to see weather observations and forecasts.

To change the map : click on the green buttons with a black cross to zoom in, on the green button with a dash to zoom out, or on the green arrows for adjacent maps.


METAR-TAF: